St. Elmo — WDG2405 — position and weather

sailwx.info

Track history (hours):
 
Tides and Currents Weather Stations Pressure Air Temp Water Temp Dewpoint Dewpoint Depression Visibility Wind Speed Wind Dir Waves Ship Positions

St. Elmo

Owner: Marquette Transportation Company Gulf-Inland, LLC, Jefferson, LA. More information available from US FCC via Universal Licensing System and Coast Guard Vessel Documentation Center.

Last reported at 2016-Feb-10 07:29 UTC. Time now 2016-Feb-11 04:28 UTC.
Position N 29°44' W 095°08'.

; draft 3.2 m.

MMSI: 367515330.

Date/timePositionNaut miles runAvg speedWind from/ knotsBaromVisibWave heightAir tempDewpointWater temp
2016-Feb-10 07:29N 29°44' W 095°08'3 0.5
2016-Feb-10 01:09N 29°46' W 095°05'1 0.5
2016-Feb-09 23:27N 29°46' W 095°04'3 3.7
2016-Feb-09 22:33N 29°44' W 095°01'0 0.0
2016-Feb-09 10:16N 29°43' W 095°01'2 2.9
2016-Feb-09 09:33N 29°44' W 095°03'  
2016-Feb-06 10:33N 29°36' W 095°01'0 0.0
2016-Feb-06 09:33N 29°36' W 095°01'0 0.0
2016-Feb-06 08:33N 29°36' W 095°01'0 0.0
2016-Feb-06 07:33N 29°36' W 095°01'0 0.0
2016-Feb-06 06:33N 29°36' W 095°01'0 0.0
2016-Feb-06 05:33N 29°36' W 095°01'0 0.0
2016-Feb-06 04:33N 29°36' W 095°01'0 0.0
2016-Feb-06 03:33N 29°36' W 095°01'0 0.0
2016-Feb-06 02:33N 29°36' W 095°01'0 0.0
2016-Feb-06 01:33N 29°36' W 095°01'0 0.0
2016-Feb-06 00:33N 29°36' W 095°01'3 3.2
2016-Feb-05 23:33N 29°38' W 094°58'5 5.5
2016-Feb-05 22:33N 29°42' W 095°01'5 0.6
2016-Feb-05 14:07N 29°45' W 095°06'1 1.1
2016-Feb-05 13:33N 29°46' W 095°05'6 6.1
2016-Feb-05 12:33N 29°42' W 094°60'5 5.2
2016-Feb-05 11:33N 29°37' W 094°59'2 1.8
2016-Feb-05 10:33N 29°36' W 095°01'0 0.0
2016-Feb-05 09:33N 29°36' W 095°01'0 0.0
2016-Feb-05 08:33N 29°36' W 095°01'0 0.0
2016-Feb-05 07:33N 29°36' W 095°01'0 0.0
2016-Feb-05 06:33N 29°36' W 095°01'0 0.0
2016-Feb-05 05:33N 29°36' W 095°01'0 0.0
2016-Feb-05 04:33N 29°36' W 095°01'0 0.0
2016-Feb-05 03:33N 29°36' W 095°01'0 0.0
2016-Feb-05 02:33N 29°36' W 095°01'0 0.0
2016-Feb-05 01:33N 29°36' W 095°01'0 0.0
2016-Feb-05 00:33N 29°36' W 095°01'0 0.0
2016-Feb-04 23:33N 29°36' W 095°01'0 0.0
2016-Feb-04 22:33N 29°36' W 095°01'0 0.0
2016-Feb-04 21:33N 29°36' W 095°01'0 0.0
2016-Feb-04 20:33N 29°36' W 095°01'0 0.0
2016-Feb-04 19:33N 29°36' W 095°01'0 0.0
2016-Feb-04 18:33N 29°36' W 095°01'3 2.8
2016-Feb-04 17:33N 29°37' W 094°58'6 6.1
2016-Feb-04 16:33N 29°42' W 095°01'5 0.2
2016-Feb-03 16:03N 29°46' W 095°05'0 0.1
2016-Feb-03 15:25N 29°46' W 095°06'0 0.1
2016-Feb-03 14:30N 29°46' W 095°05'0 0.0
2016-Feb-03 10:30N 29°46' W 095°05'4 3.9
2016-Feb-03 09:32N 29°44' W 095°09'  
Track history (hours):
 
Tides and Currents Weather Stations Pressure Air Temp Water Temp Dewpoint Dewpoint Depression Visibility Wind Speed Wind Dir Waves Ship Positions

St. Elmo

Owner: Marquette Transportation Company Gulf-Inland, LLC, Jefferson, LA. More information available from US FCC via Universal Licensing System and Coast Guard Vessel Documentation Center.

Last reported at 2016-Feb-10 07:29 UTC. Time now 2016-Feb-11 04:28 UTC.
Position N 29°44' W 095°08'.

; draft 3.2 m.

MMSI: 367515330.

Date/timePositionNaut miles runAvg speedWind from/ knotsBaromVisibWave heightAir tempDewpointWater temp
2016-Feb-10 07:29N 29°44' W 095°08'3 0.5
2016-Feb-10 01:09N 29°46' W 095°05'1 0.5
2016-Feb-09 23:27N 29°46' W 095°04'3 3.7
2016-Feb-09 22:33N 29°44' W 095°01'0 0.0
2016-Feb-09 10:16N 29°43' W 095°01'2 2.9
2016-Feb-09 09:33N 29°44' W 095°03'  
2016-Feb-06 10:33N 29°36' W 095°01'0 0.0
2016-Feb-06 09:33N 29°36' W 095°01'0 0.0
2016-Feb-06 08:33N 29°36' W 095°01'0 0.0
2016-Feb-06 07:33N 29°36' W 095°01'0 0.0
2016-Feb-06 06:33N 29°36' W 095°01'0 0.0
2016-Feb-06 05:33N 29°36' W 095°01'0 0.0
2016-Feb-06 04:33N 29°36' W 095°01'0 0.0
2016-Feb-06 03:33N 29°36' W 095°01'0 0.0
2016-Feb-06 02:33N 29°36' W 095°01'0 0.0
2016-Feb-06 01:33N 29°36' W 095°01'0 0.0
2016-Feb-06 00:33N 29°36' W 095°01'3 3.2
2016-Feb-05 23:33N 29°38' W 094°58'5 5.5
2016-Feb-05 22:33N 29°42' W 095°01'5 0.6
2016-Feb-05 14:07N 29°45' W 095°06'1 1.1
2016-Feb-05 13:33N 29°46' W 095°05'6 6.1
2016-Feb-05 12:33N 29°42' W 094°60'5 5.2
2016-Feb-05 11:33N 29°37' W 094°59'2 1.8
2016-Feb-05 10:33N 29°36' W 095°01'0 0.0
2016-Feb-05 09:33N 29°36' W 095°01'0 0.0
2016-Feb-05 08:33N 29°36' W 095°01'0 0.0
2016-Feb-05 07:33N 29°36' W 095°01'0 0.0
2016-Feb-05 06:33N 29°36' W 095°01'0 0.0
2016-Feb-05 05:33N 29°36' W 095°01'0 0.0
2016-Feb-05 04:33N 29°36' W 095°01'0 0.0
2016-Feb-05 03:33N 29°36' W 095°01'0 0.0
2016-Feb-05 02:33N 29°36' W 095°01'0 0.0
2016-Feb-05 01:33N 29°36' W 095°01'0 0.0
2016-Feb-05 00:33N 29°36' W 095°01'0 0.0
2016-Feb-04 23:33N 29°36' W 095°01'0 0.0
2016-Feb-04 22:33N 29°36' W 095°01'0 0.0
2016-Feb-04 21:33N 29°36' W 095°01'0 0.0
2016-Feb-04 20:33N 29°36' W 095°01'0 0.0
2016-Feb-04 19:33N 29°36' W 095°01'0 0.0
2016-Feb-04 18:33N 29°36' W 095°01'3 2.8
2016-Feb-04 17:33N 29°37' W 094°58'6 6.1
2016-Feb-04 16:33N 29°42' W 095°01'5 0.2
2016-Feb-03 16:03N 29°46' W 095°05'0 0.1
2016-Feb-03 15:25N 29°46' W 095°06'0 0.1
2016-Feb-03 14:30N 29°46' W 095°05'0 0.0
2016-Feb-03 10:30N 29°46' W 095°05'4 3.9
2016-Feb-03 09:32N 29°44' W 095°09'  

Dump ship's entire track history